Fairview, Illinois
Current Conditions -  °F | °C
As of 10:54 PM on Friday 28 Nov 2014 (Local Time) from KPIA Reporting Station
Clear Clear  
Wind Chill: 30°   Ceiling: Unl
Heat Index: 37°   Visibility: 10mi
Dew Point: 30°   Wind: 10mph
Humidity: 76%   Direction: 170°S
Pressure: 29.86"   Gusts: NA
Location:  40.63°N, 90.16°W
Report Text: KPIA 290454Z 17009KT 10SM CLR 03/M01 A2986 RMK AO2 SLP116 T00281011
Loading
Personal Weather Stations






























Interactive Weather Map New forecast layout! Learn more

10-Day Weather Forecast

Advertisements
Track Severe Weather on mobile